sensor_id;sensor_type;location;lat;lon;timestamp;P1;durP1;ratioP1;P2;durP2;ratioP2
32236;SDS011;18726;44.732;10.550;2022-07-12T00:01:21;3.90;;;3.40;;
32236;SDS011;18726;44.732;10.550;2022-07-12T00:04:24;6.40;;;3.03;;
32236;SDS011;18726;44.732;10.550;2022-07-12T00:07:28;6.10;;;3.30;;
32236;SDS011;18726;44.732;10.550;2022-07-12T00:10:32;10.23;;;3.53;;
32236;SDS011;18726;44.732;10.550;2022-07-12T00:13:36;5.32;;;3.35;;
32236;SDS011;18726;44.732;10.550;2022-07-12T00:16:39;6.25;;;3.47;;
32236;SDS011;18726;44.732;10.550;2022-07-12T00:19:44;5.40;;;3.30;;
32236;SDS011;18726;44.732;10.550;2022-07-12T00:22:47;4.07;;;3.45;;
32236;SDS011;18726;44.732;10.550;2022-07-12T00:25:51;5.22;;;3.75;;
32236;SDS011;18726;44.732;10.550;2022-07-12T00:28:55;6.07;;;3.53;;
32236;SDS011;18726;44.732;10.550;2022-07-12T00:31:59;5.65;;;3.25;;
32236;SDS011;18726;44.732;10.550;2022-07-12T00:35:03;7.22;;;3.25;;
32236;SDS011;18726;44.732;10.550;2022-07-12T00:38:08;4.63;;;3.88;;
32236;SDS011;18726;44.732;10.550;2022-07-12T00:41:11;7.68;;;3.25;;
32236;SDS011;18726;44.732;10.550;2022-07-12T00:44:15;4.57;;;3.42;;
32236;SDS011;18726;44.732;10.550;2022-07-12T00:48:05;6.82;;;3.50;;
32236;SDS011;18726;44.732;10.550;2022-07-12T00:50:48;4.65;;;3.58;;
32236;SDS011;18726;44.732;10.550;2022-07-12T00:53:52;5.53;;;4.45;;
32236;SDS011;18726;44.732;10.550;2022-07-12T00:56:59;4.28;;;3.38;;
32236;SDS011;18726;44.732;10.550;2022-07-12T01:00:06;5.35;;;2.97;;
32236;SDS011;18726;44.732;10.550;2022-07-12T01:03:12;4.75;;;3.20;;
32236;SDS011;18726;44.732;10.550;2022-07-12T01:06:16;4.10;;;3.60;;
32236;SDS011;18726;44.732;10.550;2022-07-12T01:09:23;5.50;;;4.15;;
32236;SDS011;18726;44.732;10.550;2022-07-12T01:12:27;4.32;;;3.92;;
32236;SDS011;18726;44.732;10.550;2022-07-12T01:15:30;7.22;;;4.10;;
32236;SDS011;18726;44.732;10.550;2022-07-12T01:18:34;9.30;;;4.72;;
32236;SDS011;18726;44.732;10.550;2022-07-12T01:21:38;5.63;;;3.80;;
32236;SDS011;18726;44.732;10.550;2022-07-12T01:24:46;4.15;;;3.78;;
32236;SDS011;18726;44.732;10.550;2022-07-12T01:27:50;4.40;;;4.00;;
32236;SDS011;18726;44.732;10.550;2022-07-12T01:30:54;6.43;;;4.25;;
32236;SDS011;18726;44.732;10.550;2022-07-12T01:33:58;6.45;;;3.53;;
32236;SDS011;18726;44.732;10.550;2022-07-12T01:37:02;8.50;;;4.35;;
32236;SDS011;18726;44.732;10.550;2022-07-12T01:40:07;6.50;;;4.07;;
32236;SDS011;18726;44.732;10.550;2022-07-12T01:43:12;5.55;;;4.03;;
32236;SDS011;18726;44.732;10.550;2022-07-12T01:46:16;4.68;;;4.28;;
32236;SDS011;18726;44.732;10.550;2022-07-12T01:49:19;4.47;;;4.05;;
32236;SDS011;18726;44.732;10.550;2022-07-12T01:52:23;5.05;;;4.13;;
32236;SDS011;18726;44.732;10.550;2022-07-12T01:55:27;4.50;;;4.10;;
32236;SDS011;18726;44.732;10.550;2022-07-12T01:58:31;6.85;;;4.95;;
32236;SDS011;18726;44.732;10.550;2022-07-12T02:01:35;4.78;;;4.20;;
32236;SDS011;18726;44.732;10.550;2022-07-12T02:04:40;4.88;;;4.43;;
32236;SDS011;18726;44.732;10.550;2022-07-12T02:07:44;5.43;;;4.15;;
32236;SDS011;18726;44.732;10.550;2022-07-12T02:10:49;4.50;;;4.07;;
32236;SDS011;18726;44.732;10.550;2022-07-12T02:13:52;7.57;;;4.00;;
32236;SDS011;18726;44.732;10.550;2022-07-12T02:16:55;5.25;;;4.50;;
32236;SDS011;18726;44.732;10.550;2022-07-12T02:19:59;8.98;;;3.72;;
32236;SDS011;18726;44.732;10.550;2022-07-12T02:23:02;5.65;;;3.53;;
32236;SDS011;18726;44.732;10.550;2022-07-12T02:26:06;5.80;;;4.57;;
32236;SDS011;18726;44.732;10.550;2022-07-12T02:29:09;4.72;;;4.32;;
32236;SDS011;18726;44.732;10.550;2022-07-12T02:32:14;6.22;;;3.92;;
32236;SDS011;18726;44.732;10.550;2022-07-12T02:35:17;5.97;;;4.78;;
32236;SDS011;18726;44.732;10.550;2022-07-12T02:38:21;5.00;;;3.72;;
32236;SDS011;18726;44.732;10.550;2022-07-12T02:41:25;5.88;;;4.35;;
32236;SDS011;18726;44.732;10.550;2022-07-12T02:44:28;5.55;;;5.05;;
32236;SDS011;18726;44.732;10.550;2022-07-12T02:47:36;4.80;;;4.25;;
32236;SDS011;18726;44.732;10.550;2022-07-12T02:50:40;5.38;;;4.43;;
32236;SDS011;18726;44.732;10.550;2022-07-12T02:53:44;4.35;;;3.88;;
32236;SDS011;18726;44.732;10.550;2022-07-12T02:56:47;5.40;;;3.65;;
32236;SDS011;18726;44.732;10.550;2022-07-12T02:59:51;6.47;;;3.83;;
32236;SDS011;18726;44.732;10.550;2022-07-12T03:02:54;4.50;;;4.05;;
32236;SDS011;18726;44.732;10.550;2022-07-12T03:05:58;4.97;;;4.47;;
32236;SDS011;18726;44.732;10.550;2022-07-12T03:09:02;4.55;;;3.97;;
32236;SDS011;18726;44.732;10.550;2022-07-12T03:12:05;4.25;;;3.92;;
32236;SDS011;18726;44.732;10.550;2022-07-12T03:15:10;6.38;;;4.57;;
32236;SDS011;18726;44.732;10.550;2022-07-12T03:18:14;6.55;;;3.53;;
32236;SDS011;18726;44.732;10.550;2022-07-12T03:21:17;3.78;;;3.42;;
32236;SDS011;18726;44.732;10.550;2022-07-12T03:24:21;4.63;;;4.00;;
32236;SDS011;18726;44.732;10.550;2022-07-12T03:27:24;5.57;;;4.18;;
32236;SDS011;18726;44.732;10.550;2022-07-12T03:30:28;5.85;;;3.50;;
32236;SDS011;18726;44.732;10.550;2022-07-12T03:33:32;5.53;;;4.22;;
32236;SDS011;18726;44.732;10.550;2022-07-12T03:36:36;4.28;;;3.88;;
32236;SDS011;18726;44.732;10.550;2022-07-12T03:39:40;5.03;;;3.72;;
32236;SDS011;18726;44.732;10.550;2022-07-12T03:42:44;4.90;;;4.00;;
32236;SDS011;18726;44.732;10.550;2022-07-12T03:45:49;4.60;;;4.20;;
32236;SDS011;18726;44.732;10.550;2022-07-12T03:48:52;6.10;;;4.25;;
32236;SDS011;18726;44.732;10.550;2022-07-12T03:51:56;9.07;;;4.38;;
32236;SDS011;18726;44.732;10.550;2022-07-12T03:55:00;4.65;;;3.20;;
32236;SDS011;18726;44.732;10.550;2022-07-12T03:58:07;5.80;;;3.53;;
32236;SDS011;18726;44.732;10.550;2022-07-12T04:01:10;6.30;;;4.18;;
32236;SDS011;18726;44.732;10.550;2022-07-12T04:04:14;4.55;;;4.03;;
32236;SDS011;18726;44.732;10.550;2022-07-12T04:07:17;5.05;;;4.07;;
32236;SDS011;18726;44.732;10.550;2022-07-12T04:10:22;5.00;;;3.97;;
32236;SDS011;18726;44.732;10.550;2022-07-12T04:13:26;8.65;;;4.55;;
32236;SDS011;18726;44.732;10.550;2022-07-12T04:16:29;9.50;;;5.93;;
32236;SDS011;18726;44.732;10.550;2022-07-12T04:19:33;8.80;;;6.20;;
32236;SDS011;18726;44.732;10.550;2022-07-12T04:22:37;6.97;;;5.00;;
32236;SDS011;18726;44.732;10.550;2022-07-12T04:25:41;5.78;;;5.18;;
32236;SDS011;18726;44.732;10.550;2022-07-12T04:28:45;5.80;;;4.60;;
32236;SDS011;18726;44.732;10.550;2022-07-12T04:31:48;5.13;;;4.55;;
32236;SDS011;18726;44.732;10.550;2022-07-12T04:34:51;5.10;;;4.55;;
32236;SDS011;18726;44.732;10.550;2022-07-12T04:37:54;9.75;;;4.90;;
32236;SDS011;18726;44.732;10.550;2022-07-12T04:40:58;6.07;;;4.13;;
32236;SDS011;18726;44.732;10.550;2022-07-12T04:44:03;4.85;;;4.32;;
32236;SDS011;18726;44.732;10.550;2022-07-12T04:47:07;5.53;;;3.85;;
32236;SDS011;18726;44.732;10.550;2022-07-12T04:50:11;8.05;;;4.15;;
32236;SDS011;18726;44.732;10.550;2022-07-12T04:53:15;9.18;;;4.55;;
32236;SDS011;18726;44.732;10.550;2022-07-12T04:56:19;6.00;;;3.60;;
32236;SDS011;18726;44.732;10.550;2022-07-12T04:59:22;5.90;;;4.30;;
32236;SDS011;18726;44.732;10.550;2022-07-12T05:02:26;8.70;;;4.30;;
32236;SDS011;18726;44.732;10.550;2022-07-12T05:05:30;5.18;;;3.38;;
32236;SDS011;18726;44.732;10.550;2022-07-12T05:08:33;4.40;;;3.75;;
32236;SDS011;18726;44.732;10.550;2022-07-12T05:11:37;6.55;;;4.38;;
32236;SDS011;18726;44.732;10.550;2022-07-12T05:14:41;6.30;;;4.28;;
32236;SDS011;18726;44.732;10.550;2022-07-12T05:17:44;10.00;;;4.10;;
32236;SDS011;18726;44.732;10.550;2022-07-12T05:20:48;12.52;;;4.20;;
32236;SDS011;18726;44.732;10.550;2022-07-12T05:23:51;9.98;;;4.10;;
32236;SDS011;18726;44.732;10.550;2022-07-12T05:26:56;11.27;;;5.57;;
32236;SDS011;18726;44.732;10.550;2022-07-12T05:30:00;6.82;;;5.28;;
32236;SDS011;18726;44.732;10.550;2022-07-12T05:33:04;9.52;;;4.30;;
32236;SDS011;18726;44.732;10.550;2022-07-12T05:36:07;6.90;;;3.72;;
32236;SDS011;18726;44.732;10.550;2022-07-12T05:39:11;7.88;;;4.38;;
32236;SDS011;18726;44.732;10.550;2022-07-12T05:42:15;5.35;;;2.70;;
32236;SDS011;18726;44.732;10.550;2022-07-12T05:45:18;5.63;;;4.47;;
32236;SDS011;18726;44.732;10.550;2022-07-12T05:48:22;6.65;;;4.60;;
32236;SDS011;18726;44.732;10.550;2022-07-12T05:51:26;4.63;;;4.00;;
32236;SDS011;18726;44.732;10.550;2022-07-12T05:54:48;7.25;;;4.43;;
32236;SDS011;18726;44.732;10.550;2022-07-12T05:57:52;6.38;;;3.95;;
32236;SDS011;18726;44.732;10.550;2022-07-12T06:00:55;5.18;;;3.30;;
32236;SDS011;18726;44.732;10.550;2022-07-12T06:03:59;10.38;;;4.35;;
32236;SDS011;18726;44.732;10.550;2022-07-12T06:07:03;12.52;;;4.40;;
32236;SDS011;18726;44.732;10.550;2022-07-12T06:10:07;7.13;;;3.75;;
32236;SDS011;18726;44.732;10.550;2022-07-12T06:13:11;9.25;;;3.85;;
32236;SDS011;18726;44.732;10.550;2022-07-12T06:16:14;6.95;;;4.03;;
32236;SDS011;18726;44.732;10.550;2022-07-12T06:19:18;11.13;;;4.60;;
32236;SDS011;18726;44.732;10.550;2022-07-12T06:22:22;7.35;;;4.60;;
32236;SDS011;18726;44.732;10.550;2022-07-12T06:25:25;13.27;;;4.93;;
32236;SDS011;18726;44.732;10.550;2022-07-12T06:28:29;5.75;;;3.30;;
32236;SDS011;18726;44.732;10.550;2022-07-12T06:31:34;9.07;;;3.65;;
32236;SDS011;18726;44.732;10.550;2022-07-12T06:34:38;7.10;;;3.78;;
32236;SDS011;18726;44.732;10.550;2022-07-12T06:37:41;9.00;;;4.30;;
32236;SDS011;18726;44.732;10.550;2022-07-12T06:40:44;8.15;;;4.10;;
32236;SDS011;18726;44.732;10.550;2022-07-12T06:43:48;4.93;;;3.70;;
32236;SDS011;18726;44.732;10.550;2022-07-12T06:46:52;6.97;;;3.35;;
32236;SDS011;18726;44.732;10.550;2022-07-12T06:49:55;7.70;;;3.72;;
32236;SDS011;18726;44.732;10.550;2022-07-12T06:52:59;7.80;;;3.38;;
32236;SDS011;18726;44.732;10.550;2022-07-12T06:56:03;6.43;;;3.58;;
32236;SDS011;18726;44.732;10.550;2022-07-12T06:59:08;9.07;;;4.18;;
32236;SDS011;18726;44.732;10.550;2022-07-12T07:02:14;6.68;;;4.07;;
32236;SDS011;18726;44.732;10.550;2022-07-12T07:05:18;6.05;;;2.85;;
32236;SDS011;18726;44.732;10.550;2022-07-12T07:08:22;5.85;;;3.50;;
32236;SDS011;18726;44.732;10.550;2022-07-12T07:11:26;4.30;;;3.33;;
32236;SDS011;18726;44.732;10.550;2022-07-12T07:14:29;4.93;;;3.00;;
32236;SDS011;18726;44.732;10.550;2022-07-12T07:17:33;9.02;;;3.65;;
32236;SDS011;18726;44.732;10.550;2022-07-12T07:20:37;4.28;;;3.15;;
32236;SDS011;18726;44.732;10.550;2022-07-12T07:23:44;5.90;;;3.35;;
32236;SDS011;18726;44.732;10.550;2022-07-12T07:26:47;5.05;;;2.80;;
32236;SDS011;18726;44.732;10.550;2022-07-12T07:29:51;4.70;;;3.30;;
32236;SDS011;18726;44.732;10.550;2022-07-12T07:33:14;4.43;;;2.88;;
32236;SDS011;18726;44.732;10.550;2022-07-12T07:36:17;5.90;;;2.40;;
32236;SDS011;18726;44.732;10.550;2022-07-12T07:39:21;4.45;;;2.85;;
32236;SDS011;18726;44.732;10.550;2022-07-12T07:42:25;6.22;;;2.55;;
32236;SDS011;18726;44.732;10.550;2022-07-12T07:45:29;5.78;;;2.88;;
32236;SDS011;18726;44.732;10.550;2022-07-12T07:48:32;10.60;;;2.65;;
32236;SDS011;18726;44.732;10.550;2022-07-12T07:51:36;4.75;;;2.83;;
32236;SDS011;18726;44.732;10.550;2022-07-12T07:54:39;3.92;;;2.30;;
32236;SDS011;18726;44.732;10.550;2022-07-12T07:57:43;3.22;;;2.53;;
32236;SDS011;18726;44.732;10.550;2022-07-12T08:00:49;3.03;;;1.80;;
32236;SDS011;18726;44.732;10.550;2022-07-12T08:03:54;3.05;;;2.75;;
32236;SDS011;18726;44.732;10.550;2022-07-12T08:06:57;2.42;;;1.92;;
32236;SDS011;18726;44.732;10.550;2022-07-12T08:10:01;4.95;;;2.20;;
32236;SDS011;18726;44.732;10.550;2022-07-12T08:13:05;7.10;;;2.67;;
32236;SDS011;18726;44.732;10.550;2022-07-12T08:16:09;6.57;;;2.58;;
32236;SDS011;18726;44.732;10.550;2022-07-12T08:19:13;3.63;;;2.95;;
32236;SDS011;18726;44.732;10.550;2022-07-12T08:22:16;4.18;;;3.05;;
32236;SDS011;18726;44.732;10.550;2022-07-12T08:25:20;3.55;;;2.60;;
32236;SDS011;18726;44.732;10.550;2022-07-12T08:28:23;7.45;;;2.75;;
32236;SDS011;18726;44.732;10.550;2022-07-12T08:31:27;5.60;;;2.83;;
32236;SDS011;18726;44.732;10.550;2022-07-12T08:34:31;3.55;;;2.67;;
32236;SDS011;18726;44.732;10.550;2022-07-12T08:37:35;5.30;;;2.38;;
32236;SDS011;18726;44.732;10.550;2022-07-12T08:40:38;4.35;;;2.88;;
32236;SDS011;18726;44.732;10.550;2022-07-12T08:43:43;5.25;;;2.55;;
32236;SDS011;18726;44.732;10.550;2022-07-12T08:46:47;8.95;;;3.63;;
32236;SDS011;18726;44.732;10.550;2022-07-12T08:50:12;4.15;;;2.35;;
32236;SDS011;18726;44.732;10.550;2022-07-12T08:53:23;3.75;;;2.38;;
32236;SDS011;18726;44.732;10.550;2022-07-12T08:56:32;3.83;;;2.60;;
32236;SDS011;18726;44.732;10.550;2022-07-12T08:59:37;6.82;;;2.78;;
32236;SDS011;18726;44.732;10.550;2022-07-12T09:05:53;4.85;;;2.60;;
32236;SDS011;18726;44.732;10.550;2022-07-12T09:08:58;7.97;;;2.67;;
32236;SDS011;18726;44.732;10.550;2022-07-12T09:12:02;4.75;;;2.40;;
32236;SDS011;18726;44.732;10.550;2022-07-12T09:15:13;5.40;;;2.35;;
32236;SDS011;18726;44.732;10.550;2022-07-12T09:18:20;7.63;;;2.40;;
32236;SDS011;18726;44.732;10.550;2022-07-12T09:21:31;4.72;;;2.38;;
32236;SDS011;18726;44.732;10.550;2022-07-12T09:24:35;2.97;;;2.17;;
32236;SDS011;18726;44.732;10.550;2022-07-12T09:27:39;5.40;;;2.55;;
32236;SDS011;18726;44.732;10.550;2022-07-12T09:30:57;4.68;;;2.47;;
32236;SDS011;18726;44.732;10.550;2022-07-12T09:34:02;7.20;;;2.60;;
32236;SDS011;18726;44.732;10.550;2022-07-12T09:37:25;4.70;;;2.20;;
32236;SDS011;18726;44.732;10.550;2022-07-12T09:40:30;6.72;;;2.70;;
32236;SDS011;18726;44.732;10.550;2022-07-12T09:43:34;6.82;;;2.80;;
32236;SDS011;18726;44.732;10.550;2022-07-12T09:46:38;3.17;;;2.55;;
32236;SDS011;18726;44.732;10.550;2022-07-12T09:49:44;6.28;;;3.35;;
32236;SDS011;18726;44.732;10.550;2022-07-12T09:52:48;6.97;;;2.50;;
32236;SDS011;18726;44.732;10.550;2022-07-12T09:55:56;3.88;;;2.72;;
32236;SDS011;18726;44.732;10.550;2022-07-12T09:59:01;3.17;;;2.70;;
32236;SDS011;18726;44.732;10.550;2022-07-12T10:02:05;3.28;;;2.58;;
32236;SDS011;18726;44.732;10.550;2022-07-12T10:05:09;4.53;;;2.55;;
32236;SDS011;18726;44.732;10.550;2022-07-12T10:08:14;3.03;;;2.58;;
32236;SDS011;18726;44.732;10.550;2022-07-12T10:11:18;4.25;;;2.20;;
32236;SDS011;18726;44.732;10.550;2022-07-12T10:14:23;4.15;;;2.60;;
32236;SDS011;18726;44.732;10.550;2022-07-12T10:17:27;2.97;;;2.50;;
32236;SDS011;18726;44.732;10.550;2022-07-12T10:20:32;6.22;;;2.45;;
32236;SDS011;18726;44.732;10.550;2022-07-12T10:23:36;2.90;;;2.50;;
32236;SDS011;18726;44.732;10.550;2022-07-12T10:26:40;2.47;;;2.28;;
32236;SDS011;18726;44.732;10.550;2022-07-12T10:29:45;6.05;;;2.92;;
32236;SDS011;18726;44.732;10.550;2022-07-12T10:32:51;3.60;;;2.58;;
32236;SDS011;18726;44.732;10.550;2022-07-12T10:36:06;5.20;;;2.33;;
32236;SDS011;18726;44.732;10.550;2022-07-12T10:39:11;3.92;;;2.75;;
32236;SDS011;18726;44.732;10.550;2022-07-12T10:42:16;3.65;;;2.30;;
32236;SDS011;18726;44.732;10.550;2022-07-12T10:45:23;4.10;;;2.30;;
32236;SDS011;18726;44.732;10.550;2022-07-12T10:48:27;2.20;;;2.00;;
32236;SDS011;18726;44.732;10.550;2022-07-12T10:51:30;2.58;;;2.22;;
32236;SDS011;18726;44.732;10.550;2022-07-12T10:54:39;4.35;;;2.25;;
32236;SDS011;18726;44.732;10.550;2022-07-12T10:57:53;6.70;;;2.70;;
32236;SDS011;18726;44.732;10.550;2022-07-12T11:00:57;3.03;;;2.42;;
32236;SDS011;18726;44.732;10.550;2022-07-12T11:07:06;8.07;;;2.92;;
32236;SDS011;18726;44.732;10.550;2022-07-12T11:10:11;3.67;;;2.78;;
32236;SDS011;18726;44.732;10.550;2022-07-12T11:13:22;3.03;;;2.35;;
32236;SDS011;18726;44.732;10.550;2022-07-12T11:16:29;4.20;;;2.30;;
32236;SDS011;18726;44.732;10.550;2022-07-12T11:19:33;3.40;;;2.20;;
32236;SDS011;18726;44.732;10.550;2022-07-12T11:22:39;2.63;;;2.20;;
32236;SDS011;18726;44.732;10.550;2022-07-12T11:25:44;5.40;;;2.58;;
32236;SDS011;18726;44.732;10.550;2022-07-12T11:28:48;3.25;;;2.53;;
32236;SDS011;18726;44.732;10.550;2022-07-12T11:32:02;3.78;;;2.03;;
32236;SDS011;18726;44.732;10.550;2022-07-12T11:35:21;3.78;;;2.40;;
32236;SDS011;18726;44.732;10.550;2022-07-12T11:38:26;4.07;;;2.10;;
32236;SDS011;18726;44.732;10.550;2022-07-12T11:41:31;2.25;;;1.80;;
32236;SDS011;18726;44.732;10.550;2022-07-12T11:44:47;3.17;;;2.58;;
32236;SDS011;18726;44.732;10.550;2022-07-12T11:47:53;2.50;;;2.17;;
32236;SDS011;18726;44.732;10.550;2022-07-12T11:50:59;3.20;;;1.73;;
32236;SDS011;18726;44.732;10.550;2022-07-12T11:54:05;2.90;;;2.15;;
32236;SDS011;18726;44.732;10.550;2022-07-12T11:57:09;4.35;;;2.50;;
32236;SDS011;18726;44.732;10.550;2022-07-12T12:00:14;3.60;;;2.28;;
32236;SDS011;18726;44.732;10.550;2022-07-12T12:03:18;1.92;;;1.83;;
32236;SDS011;18726;44.732;10.550;2022-07-12T12:06:23;4.07;;;2.30;;
32236;SDS011;18726;44.732;10.550;2022-07-12T12:09:27;3.38;;;2.00;;
32236;SDS011;18726;44.732;10.550;2022-07-12T12:12:49;1.65;;;1.55;;
32236;SDS011;18726;44.732;10.550;2022-07-12T12:15:58;2.83;;;2.00;;
32236;SDS011;18726;44.732;10.550;2022-07-12T12:19:10;4.13;;;2.00;;
32236;SDS011;18726;44.732;10.550;2022-07-12T12:22:28;4.63;;;1.83;;
32236;SDS011;18726;44.732;10.550;2022-07-12T12:25:37;3.83;;;1.90;;
32236;SDS011;18726;44.732;10.550;2022-07-12T12:28:45;3.60;;;1.80;;
32236;SDS011;18726;44.732;10.550;2022-07-12T12:31:57;2.17;;;1.83;;
32236;SDS011;18726;44.732;10.550;2022-07-12T12:35:04;2.50;;;1.52;;
32236;SDS011;18726;44.732;10.550;2022-07-12T12:38:13;2.13;;;1.75;;
32236;SDS011;18726;44.732;10.550;2022-07-12T12:41:18;1.85;;;1.75;;
32236;SDS011;18726;44.732;10.550;2022-07-12T12:44:25;2.15;;;1.80;;
32236;SDS011;18726;44.732;10.550;2022-07-12T12:47:29;3.53;;;1.80;;
32236;SDS011;18726;44.732;10.550;2022-07-12T12:50:46;4.18;;;2.20;;
32236;SDS011;18726;44.732;10.550;2022-07-12T12:53:55;3.28;;;2.00;;
32236;SDS011;18726;44.732;10.550;2022-07-12T12:57:00;2.85;;;2.10;;
32236;SDS011;18726;44.732;10.550;2022-07-12T13:00:04;4.68;;;2.22;;
32236;SDS011;18726;44.732;10.550;2022-07-12T13:03:09;7.78;;;2.38;;
32236;SDS011;18726;44.732;10.550;2022-07-12T13:06:14;3.47;;;2.20;;
32236;SDS011;18726;44.732;10.550;2022-07-12T13:09:18;2.80;;;2.33;;
32236;SDS011;18726;44.732;10.550;2022-07-12T13:12:25;2.63;;;2.30;;
32236;SDS011;18726;44.732;10.550;2022-07-12T13:15:29;2.78;;;2.22;;
32236;SDS011;18726;44.732;10.550;2022-07-12T13:18:33;3.22;;;2.33;;
32236;SDS011;18726;44.732;10.550;2022-07-12T13:21:37;3.95;;;2.42;;
32236;SDS011;18726;44.732;10.550;2022-07-12T13:24:41;2.47;;;1.98;;
32236;SDS011;18726;44.732;10.550;2022-07-12T13:27:45;2.17;;;1.83;;
32236;SDS011;18726;44.732;10.550;2022-07-12T13:30:50;2.53;;;2.00;;
32236;SDS011;18726;44.732;10.550;2022-07-12T13:33:56;4.05;;;1.70;;
32236;SDS011;18726;44.732;10.550;2022-07-12T13:36:59;4.13;;;2.20;;
32236;SDS011;18726;44.732;10.550;2022-07-12T13:40:03;6.82;;;2.67;;
32236;SDS011;18726;44.732;10.550;2022-07-12T13:43:14;3.47;;;2.15;;
32236;SDS011;18726;44.732;10.550;2022-07-12T13:46:17;4.10;;;2.55;;
32236;SDS011;18726;44.732;10.550;2022-07-12T13:49:21;2.88;;;2.45;;
32236;SDS011;18726;44.732;10.550;2022-07-12T13:52:25;4.10;;;2.60;;
32236;SDS011;18726;44.732;10.550;2022-07-12T13:55:28;6.22;;;2.47;;
32236;SDS011;18726;44.732;10.550;2022-07-12T13:58:34;3.28;;;2.20;;
32236;SDS011;18726;44.732;10.550;2022-07-12T14:01:37;10.88;;;3.05;;
32236;SDS011;18726;44.732;10.550;2022-07-12T14:04:41;2.95;;;2.63;;
32236;SDS011;18726;44.732;10.550;2022-07-12T14:07:45;5.20;;;2.63;;
32236;SDS011;18726;44.732;10.550;2022-07-12T14:10:50;4.53;;;2.60;;
32236;SDS011;18726;44.732;10.550;2022-07-12T14:13:53;3.00;;;2.72;;
32236;SDS011;18726;44.732;10.550;2022-07-12T14:16:57;5.05;;;2.38;;
32236;SDS011;18726;44.732;10.550;2022-07-12T14:20:01;3.72;;;2.70;;
32236;SDS011;18726;44.732;10.550;2022-07-12T14:23:05;6.65;;;2.80;;
32236;SDS011;18726;44.732;10.550;2022-07-12T14:26:09;5.10;;;2.50;;
32236;SDS011;18726;44.732;10.550;2022-07-12T14:29:13;7.10;;;2.58;;
32236;SDS011;18726;44.732;10.550;2022-07-12T14:32:16;4.82;;;2.85;;
32236;SDS011;18726;44.732;10.550;2022-07-12T14:35:20;3.83;;;3.00;;
32236;SDS011;18726;44.732;10.550;2022-07-12T14:38:24;3.92;;;2.40;;
32236;SDS011;18726;44.732;10.550;2022-07-12T14:41:27;5.00;;;2.72;;
32236;SDS011;18726;44.732;10.550;2022-07-12T14:44:31;6.68;;;2.97;;
32236;SDS011;18726;44.732;10.550;2022-07-12T14:47:35;7.32;;;3.58;;
32236;SDS011;18726;44.732;10.550;2022-07-12T14:50:39;5.90;;;2.92;;
32236;SDS011;18726;44.732;10.550;2022-07-12T14:53:42;6.00;;;3.08;;
32236;SDS011;18726;44.732;10.550;2022-07-12T14:56:46;2.78;;;2.58;;
32236;SDS011;18726;44.732;10.550;2022-07-12T14:59:50;4.43;;;3.28;;
32236;SDS011;18726;44.732;10.550;2022-07-12T15:02:55;5.28;;;2.85;;
32236;SDS011;18726;44.732;10.550;2022-07-12T15:06:03;6.28;;;3.53;;
32236;SDS011;18726;44.732;10.550;2022-07-12T15:09:07;3.90;;;3.10;;
32236;SDS011;18726;44.732;10.550;2022-07-12T15:12:11;6.25;;;3.13;;
32236;SDS011;18726;44.732;10.550;2022-07-12T15:15:15;3.75;;;2.72;;
32236;SDS011;18726;44.732;10.550;2022-07-12T15:18:18;4.22;;;2.72;;
32236;SDS011;18726;44.732;10.550;2022-07-12T15:21:22;3.30;;;2.97;;
32236;SDS011;18726;44.732;10.550;2022-07-12T15:24:26;4.22;;;2.65;;
32236;SDS011;18726;44.732;10.550;2022-07-12T15:27:30;3.78;;;2.50;;
32236;SDS011;18726;44.732;10.550;2022-07-12T15:30:34;3.70;;;2.80;;
32236;SDS011;18726;44.732;10.550;2022-07-12T15:33:39;4.63;;;2.53;;
32236;SDS011;18726;44.732;10.550;2022-07-12T15:36:43;8.02;;;2.72;;
32236;SDS011;18726;44.732;10.550;2022-07-12T15:39:47;3.97;;;2.45;;
32236;SDS011;18726;44.732;10.550;2022-07-12T15:42:50;8.40;;;2.72;;
32236;SDS011;18726;44.732;10.550;2022-07-12T15:45:54;10.23;;;2.70;;
32236;SDS011;18726;44.732;10.550;2022-07-12T15:48:57;6.32;;;3.15;;
32236;SDS011;18726;44.732;10.550;2022-07-12T15:52:01;8.93;;;2.95;;
32236;SDS011;18726;44.732;10.550;2022-07-12T15:55:23;6.72;;;2.38;;
32236;SDS011;18726;44.732;10.550;2022-07-12T15:58:32;3.95;;;2.60;;
32236;SDS011;18726;44.732;10.550;2022-07-12T16:01:37;2.33;;;2.13;;
32236;SDS011;18726;44.732;10.550;2022-07-12T16:04:41;5.45;;;2.65;;
32236;SDS011;18726;44.732;10.550;2022-07-12T16:07:45;3.08;;;2.55;;
32236;SDS011;18726;44.732;10.550;2022-07-12T16:10:51;4.47;;;2.63;;
32236;SDS011;18726;44.732;10.550;2022-07-12T16:13:54;7.53;;;2.55;;
32236;SDS011;18726;44.732;10.550;2022-07-12T16:16:58;5.60;;;2.85;;
32236;SDS011;18726;44.732;10.550;2022-07-12T16:20:02;3.95;;;3.03;;
32236;SDS011;18726;44.732;10.550;2022-07-12T16:23:08;6.80;;;2.83;;
32236;SDS011;18726;44.732;10.550;2022-07-12T16:26:13;8.02;;;2.45;;
32236;SDS011;18726;44.732;10.550;2022-07-12T16:29:16;4.40;;;2.70;;
32236;SDS011;18726;44.732;10.550;2022-07-12T16:32:20;4.82;;;3.00;;
32236;SDS011;18726;44.732;10.550;2022-07-12T16:35:24;4.13;;;2.58;;
32236;SDS011;18726;44.732;10.550;2022-07-12T16:38:28;7.18;;;2.70;;
32236;SDS011;18726;44.732;10.550;2022-07-12T16:41:32;4.13;;;3.22;;
32236;SDS011;18726;44.732;10.550;2022-07-12T16:44:35;3.10;;;2.80;;
32236;SDS011;18726;44.732;10.550;2022-07-12T16:47:39;2.83;;;2.42;;
32236;SDS011;18726;44.732;10.550;2022-07-12T16:50:43;8.73;;;3.53;;
32236;SDS011;18726;44.732;10.550;2022-07-12T16:53:50;7.35;;;3.15;;
32236;SDS011;18726;44.732;10.550;2022-07-12T16:56:55;3.60;;;2.63;;
32236;SDS011;18726;44.732;10.550;2022-07-12T16:59:59;8.45;;;3.50;;
32236;SDS011;18726;44.732;10.550;2022-07-12T17:03:03;6.38;;;2.83;;
32236;SDS011;18726;44.732;10.550;2022-07-12T17:06:07;6.38;;;2.85;;
32236;SDS011;18726;44.732;10.550;2022-07-12T17:09:11;5.70;;;3.25;;
32236;SDS011;18726;44.732;10.550;2022-07-12T17:12:14;4.72;;;2.90;;
32236;SDS011;18726;44.732;10.550;2022-07-12T17:15:19;6.25;;;3.00;;
32236;SDS011;18726;44.732;10.550;2022-07-12T17:18:24;7.07;;;3.03;;
32236;SDS011;18726;44.732;10.550;2022-07-12T17:21:27;3.47;;;2.70;;
32236;SDS011;18726;44.732;10.550;2022-07-12T17:24:31;4.75;;;3.00;;
32236;SDS011;18726;44.732;10.550;2022-07-12T17:27:34;4.38;;;3.08;;
32236;SDS011;18726;44.732;10.550;2022-07-12T17:30:38;5.95;;;3.35;;
32236;SDS011;18726;44.732;10.550;2022-07-12T17:33:43;8.55;;;3.13;;
32236;SDS011;18726;44.732;10.550;2022-07-12T17:36:50;3.60;;;3.10;;
32236;SDS011;18726;44.732;10.550;2022-07-12T17:39:54;3.33;;;3.03;;
32236;SDS011;18726;44.732;10.550;2022-07-12T17:42:57;3.47;;;2.83;;
32236;SDS011;18726;44.732;10.550;2022-07-12T17:46:01;9.20;;;3.30;;
32236;SDS011;18726;44.732;10.550;2022-07-12T17:49:05;6.72;;;3.72;;
32236;SDS011;18726;44.732;10.550;2022-07-12T17:52:09;3.55;;;2.92;;
32236;SDS011;18726;44.732;10.550;2022-07-12T17:55:12;5.57;;;3.10;;
32236;SDS011;18726;44.732;10.550;2022-07-12T17:58:16;3.65;;;3.35;;
32236;SDS011;18726;44.732;10.550;2022-07-12T18:01:38;3.28;;;2.72;;
32236;SDS011;18726;44.732;10.550;2022-07-12T18:04:42;7.40;;;3.28;;
32236;SDS011;18726;44.732;10.550;2022-07-12T18:07:46;6.30;;;3.00;;
32236;SDS011;18726;44.732;10.550;2022-07-12T18:10:49;8.68;;;3.35;;
32236;SDS011;18726;44.732;10.550;2022-07-12T18:13:54;5.57;;;2.75;;
32236;SDS011;18726;44.732;10.550;2022-07-12T18:17:16;5.10;;;2.45;;
32236;SDS011;18726;44.732;10.550;2022-07-12T18:20:39;7.10;;;3.30;;
32236;SDS011;18726;44.732;10.550;2022-07-12T18:23:43;3.72;;;2.80;;